createdAt,value
2018-10-03T00:01:56.991Z,91.90
2018-10-03T00:04:27.085Z,91.77
2018-10-03T00:06:56.977Z,91.91
2018-10-03T00:09:27.594Z,92.08
2018-10-03T00:11:57.229Z,92.11
2018-10-03T00:14:27.405Z,91.92
2018-10-03T00:16:57.560Z,92.42
2018-10-03T00:19:27.662Z,92.26
2018-10-03T00:21:57.667Z,92.28
2018-10-03T00:24:27.440Z,92.41
2018-10-03T00:26:57.205Z,92.35
2018-10-03T00:29:27.047Z,92.34
2018-10-03T00:31:56.962Z,92.56
2018-10-03T00:34:27.021Z,92.62
2018-10-03T00:36:56.825Z,92.59
2018-10-03T00:39:26.866Z,92.61
2018-10-03T00:41:56.999Z,92.59
2018-10-03T00:44:26.801Z,92.59
2018-10-03T00:46:56.584Z,92.84
2018-10-03T00:49:27.001Z,92.67
2018-10-03T00:51:56.743Z,92.83
2018-10-03T00:54:26.750Z,92.81
2018-10-03T00:56:56.505Z,92.86
2018-10-03T00:59:26.245Z,93.05
2018-10-03T01:01:55.996Z,93.22
2018-10-03T01:04:26.433Z,93.19
2018-10-03T01:06:56.210Z,93.27
2018-10-03T01:09:26.081Z,93.32
2018-10-03T01:11:55.785Z,92.87
2018-10-03T01:14:26.061Z,92.27
2018-10-03T01:16:55.843Z,91.42
2018-10-03T01:19:26.050Z,90.32
2018-10-03T01:21:55.809Z,89.05
2018-10-03T01:24:25.559Z,87.81
2018-10-03T01:26:55.243Z,87.41
2018-10-03T01:29:25.834Z,87.16
2018-10-03T01:31:55.699Z,87.62
2018-10-03T01:34:25.550Z,86.92
2018-10-03T01:36:55.221Z,85.89
2018-10-03T01:39:25.067Z,82.45
2018-10-03T01:41:54.819Z,82.42
2018-10-03T01:44:24.642Z,81.92
2018-10-03T01:46:54.264Z,82.30
2018-10-03T01:49:24.155Z,81.98
2018-10-03T01:51:53.935Z,82.55
2018-10-03T01:54:24.005Z,82.77
2018-10-03T01:56:53.667Z,82.74
2018-10-03T01:59:23.668Z,82.94
2018-10-03T02:01:53.441Z,82.97
2018-10-03T02:04:23.381Z,82.33
2018-10-03T02:06:53.129Z,82.13
2018-10-03T02:09:23.047Z,82.35
2018-10-03T02:11:52.805Z,82.20
2018-10-03T02:14:22.660Z,82.43
2018-10-03T02:16:52.323Z,83.60
2018-10-03T02:19:22.071Z,84.06
2018-10-03T02:21:51.683Z,84.48
2018-10-03T02:24:21.983Z,84.63
2018-10-03T02:26:51.809Z,84.88
2018-10-03T02:29:21.760Z,84.49
2018-10-03T02:31:51.525Z,83.50
2018-10-03T02:34:21.508Z,83.50
2018-10-03T02:36:51.381Z,84.50
2018-10-03T02:39:21.141Z,84.49
2018-10-03T02:41:50.902Z,84.99
2018-10-03T02:44:20.870Z,84.97
2018-10-03T02:46:50.712Z,85.84
2018-10-03T02:49:20.539Z,86.66
2018-10-03T02:51:50.240Z,87.20
2018-10-03T02:54:20.345Z,87.33
2018-10-03T02:56:50.168Z,87.28
2018-10-03T02:59:20.122Z,88.00
2018-10-03T03:01:49.948Z,88.31
2018-10-03T03:04:20.007Z,88.38
2018-10-03T03:06:49.781Z,87.66
2018-10-03T03:09:19.864Z,87.67
2018-10-03T03:11:49.664Z,87.64
2018-10-03T03:14:19.364Z,87.54
2018-10-03T03:16:49.143Z,87.92
2018-10-03T03:19:18.941Z,87.74
2018-10-03T03:21:48.665Z,88.01
2018-10-03T03:24:18.400Z,87.59
2018-10-03T03:26:48.199Z,88.18
2018-10-03T03:29:18.025Z,87.62
2018-10-03T03:31:47.710Z,87.62
2018-10-03T03:34:17.524Z,88.30
2018-10-03T03:36:47.186Z,87.81
2018-10-03T03:39:16.957Z,87.82
2018-10-03T03:41:46.746Z,88.11
2018-10-03T03:44:16.604Z,88.24
2018-10-03T03:46:46.265Z,87.92
2018-10-03T03:49:16.340Z,88.07
2018-10-03T03:51:46.127Z,88.21
2018-10-03T03:54:15.899Z,88.75
2018-10-03T03:56:45.639Z,89.06
2018-10-03T03:59:15.680Z,89.27
2018-10-03T04:01:45.443Z,89.37
2018-10-03T04:04:15.360Z,89.20
2018-10-03T04:06:45.298Z,89.06
2018-10-03T04:09:15.210Z,89.21
2018-10-03T04:11:45.149Z,89.78
2018-10-03T04:14:14.924Z,89.59
2018-10-03T04:16:44.940Z,89.72
2018-10-03T04:19:14.843Z,89.31
2018-10-03T04:21:44.692Z,89.73
2018-10-03T04:24:15.522Z,89.60
2018-10-03T04:26:45.311Z,89.32
2018-10-03T04:29:15.104Z,89.88
2018-10-03T04:31:45.149Z,89.82
2018-10-03T04:34:15.040Z,90.01
2018-10-03T04:36:45.018Z,90.22
2018-10-03T04:39:15.045Z,90.06
2018-10-03T04:41:44.836Z,90.14
2018-10-03T04:44:14.729Z,90.29
2018-10-03T04:46:44.678Z,90.06
2018-10-03T04:49:14.460Z,90.43
2018-10-03T04:51:44.313Z,91.22
2018-10-03T04:54:14.263Z,91.83
2018-10-03T04:56:44.172Z,92.38
2018-10-03T04:59:14.165Z,92.38
2018-10-03T05:01:44.081Z,92.59
2018-10-03T05:04:14.084Z,92.15
2018-10-03T05:06:43.749Z,92.38
2018-10-03T05:09:13.754Z,92.68
2018-10-03T05:11:43.549Z,92.67
2018-10-03T05:14:13.697Z,92.75
2018-10-03T05:16:43.681Z,92.51
2018-10-03T05:19:14.576Z,92.35
2018-10-03T05:21:44.562Z,92.37
2018-10-03T05:24:14.583Z,92.53
2018-10-03T05:26:44.370Z,92.61
2018-10-03T05:29:14.411Z,92.33
2018-10-03T05:31:44.221Z,92.50
2018-10-03T05:34:14.408Z,92.37
2018-10-03T05:36:44.344Z,92.48
2018-10-03T05:39:14.806Z,91.91
2018-10-03T05:41:44.490Z,91.65
2018-10-03T05:44:14.336Z,91.17
2018-10-03T05:46:44.027Z,90.74
2018-10-03T05:49:13.853Z,90.47
2018-10-03T05:51:43.547Z,90.60
2018-10-03T05:54:13.363Z,91.43
2018-10-03T05:56:43.074Z,91.52
2018-10-03T05:59:12.879Z,92.05
2018-10-03T06:01:42.567Z,92.29
2018-10-03T06:04:12.340Z,92.08
2018-10-03T06:06:42.009Z,92.09
2018-10-03T06:09:13.471Z,92.08
2018-10-03T06:11:43.935Z,92.22
2018-10-03T06:14:13.706Z,91.78
2018-10-03T06:16:43.505Z,90.89
2018-10-03T06:19:13.232Z,88.89
2018-10-03T06:21:43.040Z,87.06
2018-10-03T06:24:12.799Z,86.48
2018-10-03T06:26:42.724Z,84.38
2018-10-03T06:29:12.645Z,83.47
2018-10-03T06:31:42.626Z,83.72
2018-10-03T06:34:12.429Z,82.93
2018-10-03T06:36:42.389Z,82.27
2018-10-03T06:39:12.352Z,81.27
2018-10-03T06:41:42.740Z,81.79
2018-10-03T06:44:12.965Z,80.80
2018-10-03T06:46:42.815Z,80.69
2018-10-03T06:49:13.655Z,79.58
2018-10-03T06:51:43.523Z,79.12
2018-10-03T06:54:14.916Z,79.40
2018-10-03T06:56:44.650Z,78.54
2018-10-03T06:59:15.512Z,77.26
2018-10-03T07:01:45.299Z,78.90
2018-10-03T07:04:16.817Z,76.80
2018-10-03T07:06:46.647Z,77.03
2018-10-03T07:09:17.444Z,75.86
2018-10-03T07:11:47.264Z,75.31
2018-10-03T07:14:18.730Z,74.09
2018-10-03T07:16:48.524Z,73.79
2018-10-03T07:19:19.271Z,73.37
2018-10-03T07:21:49.271Z,73.88
2018-10-03T07:24:20.823Z,74.41
2018-10-03T07:26:50.737Z,73.95
2018-10-03T07:29:22.189Z,72.37
2018-10-03T07:31:51.999Z,70.90
2018-10-03T07:34:21.757Z,71.33
2018-10-03T07:36:51.739Z,70.65
2018-10-03T07:39:22.179Z,71.46
2018-10-03T07:41:52.036Z,69.94
2018-10-03T07:44:21.811Z,69.51
2018-10-03T07:46:51.707Z,69.43
2018-10-03T07:49:21.429Z,68.82
2018-10-03T07:51:51.222Z,66.64
2018-10-03T07:54:21.061Z,66.69
2018-10-03T07:56:51.297Z,65.01
2018-10-03T07:59:21.147Z,63.68
2018-10-03T08:01:51.100Z,63.49
2018-10-03T08:04:21.007Z,63.70
2018-10-03T08:06:51.138Z,62.09
2018-10-03T08:09:20.885Z,61.85
2018-10-03T08:11:51.239Z,60.88
2018-10-03T08:14:21.034Z,59.72
2018-10-03T08:16:50.893Z,59.49
2018-10-03T08:19:20.706Z,60.53
2018-10-03T08:21:50.562Z,60.01
2018-10-03T08:24:20.391Z,60.53
2018-10-03T08:26:50.568Z,60.36
2018-10-03T08:29:20.530Z,59.30
2018-10-03T08:31:50.261Z,59.93
2018-10-03T08:34:19.869Z,59.79
2018-10-03T08:36:49.654Z,60.65
2018-10-03T08:39:19.338Z,60.17
2018-10-03T08:41:49.122Z,59.43
2018-10-03T08:44:19.069Z,59.83
2018-10-03T08:46:48.832Z,60.65
2018-10-03T08:49:18.648Z,59.74
2018-10-03T08:51:48.707Z,59.30
2018-10-03T08:54:18.557Z,58.59
2018-10-03T08:56:48.506Z,58.35
2018-10-03T08:59:18.248Z,58.83
2018-10-03T09:01:48.108Z,57.05
2018-10-03T09:04:17.800Z,57.00
2018-10-03T09:06:47.537Z,58.28
2018-10-03T09:09:17.318Z,57.72
2018-10-03T09:11:47.149Z,55.93
2018-10-03T09:14:17.144Z,56.40
2018-10-03T09:16:47.162Z,56.55
2018-10-03T09:19:16.937Z,55.46
2018-10-03T09:21:46.865Z,54.04
2018-10-03T09:24:16.794Z,53.74
2018-10-03T09:26:46.876Z,52.86
2018-10-03T09:29:16.669Z,52.70
2018-10-03T09:31:46.885Z,53.23
2018-10-03T09:34:17.160Z,52.57
2018-10-03T09:36:47.223Z,50.66
2018-10-03T09:39:17.082Z,52.14
2018-10-03T09:41:47.040Z,51.20
2018-10-03T09:44:16.843Z,52.13
2018-10-03T09:46:46.739Z,52.31
2018-10-03T09:49:16.739Z,52.00
2018-10-03T09:51:47.140Z,50.83
2018-10-03T09:54:16.972Z,50.82
2018-10-03T09:56:46.741Z,52.53
2018-10-03T09:59:16.844Z,50.16
2018-10-03T10:01:46.728Z,52.19
2018-10-03T10:04:16.585Z,51.01
2018-10-03T10:06:46.891Z,50.58
2018-10-03T10:09:16.687Z,51.65
2018-10-03T10:11:46.479Z,53.02
2018-10-03T10:14:16.176Z,50.42
2018-10-03T10:16:46.086Z,51.24
2018-10-03T10:19:15.886Z,51.07
2018-10-03T10:21:45.736Z,50.45
2018-10-03T10:24:15.646Z,51.44
2018-10-03T10:26:45.580Z,53.55
2018-10-03T10:29:15.581Z,49.92
2018-10-03T10:31:45.726Z,50.31
2018-10-03T10:34:15.462Z,52.05
2018-10-03T10:36:45.360Z,49.72
2018-10-03T10:39:15.250Z,51.38
2018-10-03T10:41:45.088Z,49.99
2018-10-03T10:44:14.997Z,50.82
2018-10-03T10:46:45.004Z,49.64
2018-10-03T10:49:15.509Z,48.49
2018-10-03T10:51:45.359Z,49.27
2018-10-03T10:54:15.561Z,48.19
2018-10-03T10:56:45.324Z,47.68
2018-10-03T10:59:15.167Z,49.33
2018-10-03T11:01:44.901Z,48.25
2018-10-03T11:04:14.579Z,45.29
2018-10-03T11:06:44.633Z,48.02
2018-10-03T11:09:14.498Z,48.49
2018-10-03T11:11:44.361Z,47.16
2018-10-03T11:14:14.258Z,47.74
2018-10-03T11:16:44.370Z,48.26
2018-10-03T11:19:14.290Z,47.61
2018-10-03T11:21:44.279Z,47.88
2018-10-03T11:24:14.443Z,48.16
2018-10-03T11:26:44.033Z,48.23
2018-10-03T11:29:14.389Z,44.55
2018-10-03T11:31:44.227Z,45.32
2018-10-03T11:34:14.005Z,46.11
2018-10-03T11:36:43.880Z,45.26
2018-10-03T11:39:13.535Z,49.53
2018-10-03T11:41:43.371Z,47.03
2018-10-03T11:44:12.988Z,44.39
2018-10-03T11:46:43.057Z,45.83
2018-10-03T11:49:12.731Z,46.37
2018-10-03T11:51:42.473Z,48.04
2018-10-03T11:54:12.435Z,47.32
2018-10-03T11:56:42.440Z,46.34
2018-10-03T11:59:12.173Z,44.35
2018-10-03T12:01:42.234Z,43.53
2018-10-03T12:04:12.297Z,44.17
2018-10-03T12:06:42.347Z,43.33
2018-10-03T12:09:13.899Z,43.00
2018-10-03T12:11:44.181Z,42.34
2018-10-03T12:14:14.040Z,41.99
2018-10-03T12:16:43.711Z,42.10
2018-10-03T12:19:13.465Z,42.30
2018-10-03T12:21:43.624Z,42.58
2018-10-03T12:24:13.399Z,41.32
2018-10-03T12:26:43.390Z,40.49
2018-10-03T12:29:13.625Z,41.30
2018-10-03T12:31:43.566Z,40.29
2018-10-03T12:34:13.529Z,38.76
2018-10-03T12:36:43.305Z,40.79
2018-10-03T12:39:12.965Z,39.21
2018-10-03T12:41:42.910Z,40.28
2018-10-03T12:44:12.998Z,41.69
2018-10-03T12:46:42.835Z,40.89
2018-10-03T12:49:12.497Z,39.27
2018-10-03T12:51:42.279Z,40.40
2018-10-03T12:54:12.248Z,40.35
2018-10-03T12:56:42.069Z,41.33
2018-10-03T12:59:11.897Z,39.90
2018-10-03T13:01:41.986Z,42.48
2018-10-03T13:04:11.713Z,39.82
2018-10-03T13:06:41.528Z,41.52
2018-10-03T13:09:14.387Z,42.17
2018-10-03T13:11:44.828Z,40.24
2018-10-03T13:14:15.587Z,41.15
2018-10-03T13:16:45.351Z,41.88
2018-10-03T13:19:15.101Z,43.50
2018-10-03T13:21:44.892Z,43.61
2018-10-03T13:24:14.631Z,47.27
2018-10-03T13:26:44.425Z,43.96
2018-10-03T13:29:14.249Z,46.07
2018-10-03T13:31:44.166Z,44.07
2018-10-03T13:34:13.948Z,41.12
2018-10-03T13:36:44.014Z,42.44
2018-10-03T13:39:13.772Z,43.87
2018-10-03T13:41:43.628Z,43.00
2018-10-03T13:44:13.390Z,42.67
2018-10-03T13:46:43.137Z,42.99
2018-10-03T13:49:12.882Z,42.50
2018-10-03T13:51:42.820Z,43.71
2018-10-03T13:54:12.695Z,44.13
2018-10-03T13:56:42.896Z,42.84
2018-10-03T13:59:12.653Z,42.60
2018-10-03T14:01:42.625Z,41.59
2018-10-03T14:04:12.660Z,42.41
2018-10-03T14:06:42.748Z,42.73
2018-10-03T14:09:12.984Z,45.33
2018-10-03T14:11:43.014Z,42.45
2018-10-03T14:14:12.840Z,48.69
2018-10-03T14:16:42.773Z,44.04
2018-10-03T14:19:12.645Z,45.11
2018-10-03T14:21:43.313Z,45.78
2018-10-03T14:24:13.103Z,44.12
2018-10-03T14:26:43.162Z,44.55
2018-10-03T14:29:12.851Z,44.47
2018-10-03T14:31:42.656Z,45.80
2018-10-03T14:34:22.765Z,44.65
2018-10-03T14:36:52.972Z,45.04
2018-10-03T14:39:22.624Z,44.56
2018-10-03T14:41:52.686Z,45.06
2018-10-03T14:44:22.219Z,47.08
2018-10-03T14:46:51.898Z,45.57
2018-10-03T14:49:21.546Z,47.10
2018-10-03T14:51:51.320Z,45.42
2018-10-03T14:54:21.097Z,47.74
2018-10-03T14:56:50.892Z,50.28
2018-10-03T14:59:20.571Z,53.09
2018-10-03T15:01:50.233Z,52.82
2018-10-03T15:04:19.891Z,50.86
2018-10-03T15:06:50.790Z,50.63
2018-10-03T15:09:20.361Z,51.59
2018-10-03T15:11:50.037Z,49.32
2018-10-03T15:14:19.612Z,51.83
2018-10-03T15:16:51.106Z,53.67
2018-10-03T15:19:20.787Z,55.79
2018-10-03T15:21:51.532Z,55.69
2018-10-03T15:24:21.260Z,56.29
2018-10-03T15:26:52.698Z,55.99
2018-10-03T15:29:22.352Z,52.68
2018-10-03T15:31:53.612Z,52.86
2018-10-03T15:34:23.282Z,53.70
2018-10-03T15:36:54.156Z,53.84
2018-10-03T15:39:23.849Z,54.78
2018-10-03T15:41:54.277Z,56.74
2018-10-03T15:44:24.105Z,58.08
2018-10-03T15:46:53.681Z,58.94
2018-10-03T15:49:23.371Z,58.56
2018-10-03T15:51:53.042Z,60.87
2018-10-03T15:54:22.923Z,61.85
2018-10-03T15:56:52.438Z,63.12
2018-10-03T15:59:22.063Z,63.01
2018-10-03T16:01:51.701Z,62.88
2018-10-03T16:04:21.386Z,64.71
2018-10-03T16:06:50.993Z,64.38
2018-10-03T16:09:20.775Z,65.09
2018-10-03T16:11:51.041Z,66.58
2018-10-03T16:14:20.769Z,67.35
2018-10-03T16:16:50.575Z,68.86
2018-10-03T16:19:20.297Z,69.28
2018-10-03T16:21:49.908Z,70.22
2018-10-03T16:24:19.567Z,71.55
2018-10-03T16:26:49.290Z,72.92
2018-10-03T16:29:19.684Z,72.01
2018-10-03T16:31:49.289Z,73.59
2018-10-03T16:34:19.099Z,75.19
2018-10-03T16:36:48.630Z,74.93
2018-10-03T16:39:18.383Z,76.18
2018-10-03T16:41:48.073Z,77.89
2018-10-03T16:44:17.742Z,77.28
2018-10-03T16:46:47.970Z,77.41
2018-10-03T16:49:17.666Z,78.10
2018-10-03T16:51:48.269Z,77.70
2018-10-03T16:54:18.066Z,77.78
2018-10-03T16:56:47.626Z,78.81
2018-10-03T16:59:17.327Z,79.49
2018-10-03T17:01:46.927Z,79.77
2018-10-03T17:04:16.832Z,80.58
2018-10-03T17:06:46.873Z,81.02
2018-10-03T17:09:16.764Z,80.55
2018-10-03T17:11:46.391Z,81.71
2018-10-03T17:14:31.033Z,82.74
2018-10-03T17:17:00.680Z,81.88
2018-10-03T17:19:30.413Z,82.28
2018-10-03T17:22:00.855Z,82.14
2018-10-03T17:24:34.231Z,82.29
2018-10-03T17:27:05.496Z,83.06
2018-10-03T17:29:36.002Z,82.99
2018-10-03T17:32:05.782Z,83.06
2018-10-03T17:34:37.226Z,82.97
2018-10-03T17:37:07.026Z,82.96
2018-10-03T17:39:38.119Z,82.26
2018-10-03T17:42:07.860Z,82.33
2018-10-03T17:44:38.267Z,82.92
2018-10-03T17:47:08.026Z,83.48
2018-10-03T17:49:37.807Z,83.57
2018-10-03T17:52:07.544Z,84.40
2018-10-03T17:54:37.321Z,84.62
2018-10-03T17:57:07.569Z,84.51
2018-10-03T17:59:37.418Z,85.09
2018-10-03T18:02:09.396Z,85.46
2018-10-03T18:04:39.845Z,85.27
2018-10-03T18:07:09.621Z,85.84
2018-10-03T18:09:39.714Z,85.62
2018-10-03T18:12:09.851Z,85.96
2018-10-03T18:14:40.213Z,85.99
2018-10-03T18:17:10.032Z,85.66
2018-10-03T18:19:39.993Z,86.16
2018-10-03T18:22:09.752Z,87.02
2018-10-03T18:24:39.531Z,86.89
2018-10-03T18:27:09.294Z,86.89
2018-10-03T18:29:39.053Z,87.46
2018-10-03T18:32:09.483Z,86.38
2018-10-03T18:34:39.443Z,86.31
2018-10-03T18:37:09.336Z,86.97
2018-10-03T18:39:39.601Z,87.38
2018-10-03T18:42:09.427Z,87.93
2018-10-03T18:44:39.217Z,88.04
2018-10-03T18:47:08.895Z,88.09
2018-10-03T18:49:39.025Z,87.72
2018-10-03T18:52:09.676Z,87.30
2018-10-03T18:54:39.944Z,87.88
2018-10-03T18:57:09.671Z,87.60
2018-10-03T18:59:40.253Z,88.22
2018-10-03T19:02:10.150Z,88.48
2018-10-03T19:04:39.961Z,87.77
2018-10-03T19:07:09.906Z,88.55
2018-10-03T19:09:39.682Z,88.19
2018-10-03T19:12:09.542Z,87.51
2018-10-03T19:14:39.425Z,87.13
2018-10-03T19:17:09.122Z,88.44
2018-10-03T19:19:39.355Z,88.91
2018-10-03T19:22:09.142Z,88.69
2018-10-03T19:24:38.955Z,88.45
2018-10-03T19:27:09.068Z,87.94
2018-10-03T19:29:39.106Z,88.42
2018-10-03T19:32:08.839Z,87.96
2018-10-03T19:34:38.852Z,88.52
2018-10-03T19:37:08.642Z,88.43
2018-10-03T19:39:38.479Z,88.67
2018-10-03T19:42:08.529Z,88.88
2018-10-03T19:44:38.296Z,88.71
2018-10-03T19:47:08.044Z,89.02
2018-10-03T19:49:38.108Z,89.36
2018-10-03T19:52:08.280Z,89.42
2018-10-03T19:54:39.040Z,89.49
2018-10-03T19:57:09.083Z,89.49
2018-10-03T19:59:39.400Z,90.00
2018-10-03T20:02:09.752Z,90.40
2018-10-03T20:04:40.431Z,90.80
2018-10-03T20:07:10.271Z,90.56
2018-10-03T20:09:40.519Z,90.57
2018-10-03T20:12:10.483Z,90.36
2018-10-03T20:14:40.480Z,90.83
2018-10-03T20:17:10.285Z,91.32
2018-10-03T20:19:40.204Z,90.91
2018-10-03T20:22:12.416Z,91.13
2018-10-03T20:24:42.255Z,90.94
2018-10-03T20:27:12.984Z,91.00
2018-10-03T20:29:42.913Z,90.49
2018-10-03T20:32:12.784Z,91.13
2018-10-03T20:34:42.798Z,90.18
2018-10-03T20:37:13.064Z,90.47
2018-10-03T20:39:43.208Z,89.90
2018-10-03T20:42:12.989Z,90.47
2018-10-03T20:44:42.811Z,90.18
2018-10-03T20:47:12.812Z,90.15
2018-10-03T20:49:43.260Z,90.59
2018-10-03T20:52:13.267Z,90.53
2018-10-03T20:54:44.090Z,89.54
2018-10-03T20:57:13.786Z,90.07
2018-10-03T20:59:43.756Z,89.89
2018-10-03T21:02:13.641Z,89.99
2018-10-03T21:04:43.394Z,90.74
2018-10-03T21:07:13.220Z,90.80
2018-10-03T21:09:43.029Z,91.13
2018-10-03T21:12:12.747Z,90.56
2018-10-03T21:14:43.082Z,90.40
2018-10-03T21:17:12.802Z,90.41
2018-10-03T21:19:42.966Z,90.32
2018-10-03T21:22:12.828Z,90.50
2018-10-03T21:24:42.717Z,90.74
2018-10-03T21:27:12.513Z,90.38
2018-10-03T21:29:42.631Z,90.63
2018-10-03T21:32:12.400Z,90.53
2018-10-03T21:34:42.301Z,89.99
2018-10-03T21:37:12.176Z,90.19
2018-10-03T21:39:42.073Z,90.29
2018-10-03T21:42:11.899Z,89.96
2018-10-03T21:44:41.782Z,89.96
2018-10-03T21:47:11.530Z,90.15
2018-10-03T21:49:41.629Z,90.55
2018-10-03T21:52:11.444Z,91.10
2018-10-03T21:54:41.370Z,90.82
2018-10-03T21:57:11.136Z,91.18
2018-10-03T21:59:41.266Z,90.68
2018-10-03T22:02:11.088Z,91.16
2018-10-03T22:04:41.147Z,90.86
2018-10-03T22:07:10.750Z,90.97
2018-10-03T22:09:40.785Z,90.60
2018-10-03T22:12:10.585Z,90.71
2018-10-03T22:14:40.493Z,90.70
2018-10-03T22:17:15.145Z,90.64
2018-10-03T22:19:45.144Z,90.92
2018-10-03T22:22:14.891Z,90.61
2018-10-03T22:24:44.806Z,90.51
2018-10-03T22:27:14.748Z,90.42
2018-10-03T22:29:45.422Z,90.46
2018-10-03T22:32:15.107Z,90.65
2018-10-03T22:34:44.842Z,90.25
2018-10-03T22:37:14.748Z,90.46
2018-10-03T22:39:44.591Z,90.98
2018-10-03T22:42:14.273Z,90.42
2018-10-03T22:44:44.396Z,90.70
2018-10-03T22:47:14.128Z,90.76
2018-10-03T22:49:44.026Z,90.72
2018-10-03T22:52:13.863Z,91.18
2018-10-03T22:54:43.687Z,90.94
2018-10-03T22:57:13.386Z,90.64
2018-10-03T22:59:43.251Z,90.46
2018-10-03T23:02:12.970Z,90.92
2018-10-03T23:04:42.944Z,91.41
2018-10-03T23:07:12.814Z,90.79
2018-10-03T23:09:42.602Z,91.08
2018-10-03T23:12:12.626Z,91.18
2018-10-03T23:14:42.451Z,91.20
2018-10-03T23:17:12.215Z,91.03
2018-10-03T23:19:42.221Z,91.44
2018-10-03T23:22:12.121Z,91.13
2018-10-03T23:24:42.080Z,91.25
2018-10-03T23:27:11.872Z,90.92
2018-10-03T23:29:41.967Z,91.12
2018-10-03T23:32:11.711Z,91.45
2018-10-03T23:34:42.091Z,91.05
2018-10-03T23:37:11.841Z,91.39
2018-10-03T23:39:41.601Z,91.13
2018-10-03T23:42:11.351Z,91.18
2018-10-03T23:44:41.004Z,91.11
2018-10-03T23:47:10.868Z,90.96
2018-10-03T23:49:40.645Z,90.99
2018-10-03T23:52:10.745Z,90.66
2018-10-03T23:54:40.580Z,91.07
2018-10-03T23:57:10.148Z,90.83
2018-10-03T23:59:40.070Z,90.97
